Gowganda, Canada
Current Conditions -  °F | °C
As of 7:00 PM on Friday 31 Oct 2014 (Local Time) from CYXR Reporting Station
Overcast Overcast  
Wind Chill: 18°   Ceiling: 3100
Heat Index: 28°   Visibility: 9mi
Dew Point: 23°   Wind: 12mph
Humidity: 80%   Direction: 350°N
Pressure: 30.26"   Gusts: 21mph
Location:  47.65°N, 80.78°W
Report Text: CYXR 312300Z AUTO 35010G18KT 9SM OVC031 M02/M05 A3026 RMK ICG SLP262
Loading
Personal Weather Stations






























Interactive Weather Map
Tropical Storm Tracking
New forecast layout! Learn more

10-Day Weather Forecast

Advertisements
Track Severe Weather on mobile